createdAt,value
2019-04-01T00:00:18.848Z,21.53
2019-04-01T00:01:18.837Z,21.62
2019-04-01T00:02:18.828Z,21.63
2019-04-01T00:03:18.815Z,21.59
2019-04-01T00:04:18.915Z,21.60
2019-04-01T00:05:18.793Z,21.59
2019-04-01T00:06:18.784Z,21.53
2019-04-01T00:07:18.771Z,21.65
2019-04-01T00:08:18.763Z,21.62
2019-04-01T00:09:18.753Z,21.60
2019-04-01T00:10:18.869Z,21.60
2019-04-01T00:11:18.728Z,21.63
2019-04-01T00:12:18.718Z,21.56
2019-04-01T00:13:18.719Z,21.66
2019-04-01T00:14:18.698Z,21.62
2019-04-01T00:15:18.691Z,21.65
2019-04-01T00:16:18.933Z,21.59
2019-04-01T00:17:18.663Z,21.59
2019-04-01T00:18:18.651Z,21.59
2019-04-01T00:19:18.647Z,21.63
2019-04-01T00:20:18.633Z,21.58
2019-04-01T00:21:18.619Z,21.59
2019-04-01T00:22:18.701Z,21.62
2019-04-01T00:23:18.600Z,21.51
2019-04-01T00:24:18.586Z,21.63
2019-04-01T00:25:18.575Z,21.63
2019-04-01T00:26:18.566Z,21.62
2019-04-01T00:27:18.554Z,21.62
2019-04-01T00:28:18.639Z,21.60
2019-04-01T00:29:18.535Z,21.59
2019-04-01T00:30:18.567Z,21.63
2019-04-01T00:31:18.510Z,21.56
2019-04-01T00:32:18.505Z,21.60
2019-04-01T00:33:18.492Z,21.62
2019-04-01T00:34:18.641Z,21.59
2019-04-01T00:35:18.467Z,21.60
2019-04-01T00:36:18.457Z,21.62
2019-04-01T00:37:18.513Z,21.58
2019-04-01T00:38:18.439Z,21.59
2019-04-01T00:39:18.429Z,21.63
2019-04-01T00:40:18.585Z,21.63
2019-04-01T00:41:18.403Z,21.58
2019-04-01T00:42:18.390Z,21.54
2019-04-01T00:43:18.383Z,21.54
2019-04-01T00:44:18.374Z,21.62
2019-04-01T00:45:18.360Z,21.62
2019-04-01T00:46:18.443Z,21.60
2019-04-01T00:47:18.336Z,21.60
2019-04-01T00:48:18.330Z,21.51
2019-04-01T00:49:18.315Z,21.51
2019-04-01T00:50:18.303Z,21.59
2019-04-01T00:51:18.294Z,21.59
2019-04-01T00:52:18.379Z,21.62
2019-04-01T00:53:18.328Z,21.51
2019-04-01T00:54:18.262Z,21.53
2019-04-01T00:55:18.252Z,21.51
2019-04-01T00:56:18.248Z,21.62
2019-04-01T00:57:18.233Z,21.60
2019-04-01T00:58:18.376Z,21.62
2019-04-01T00:59:18.211Z,21.54
2019-04-01T01:00:18.197Z,21.53
2019-04-01T01:01:18.185Z,21.48
2019-04-01T01:02:18.174Z,21.53
2019-04-01T01:03:18.164Z,21.54
2019-04-01T01:04:18.315Z,21.58
2019-04-01T01:05:18.142Z,21.56
2019-04-01T01:06:18.132Z,21.63
2019-04-01T01:07:18.119Z,21.54
2019-04-01T01:08:18.109Z,21.60
2019-04-01T01:09:18.097Z,21.50
2019-04-01T01:10:18.184Z,21.54
2019-04-01T01:11:18.077Z,21.58
2019-04-01T01:12:18.065Z,21.59
2019-04-01T01:13:18.055Z,21.54
2019-04-01T01:14:18.044Z,21.60
2019-04-01T01:15:18.039Z,21.53
2019-04-01T01:16:18.115Z,21.54
2019-04-01T01:17:18.013Z,21.59
2019-04-01T01:18:18.002Z,21.58
2019-04-01T01:19:17.990Z,21.62
2019-04-01T01:20:17.980Z,21.62
2019-04-01T01:21:17.968Z,21.54
2019-04-01T01:22:18.366Z,21.62
2019-04-01T01:23:17.948Z,21.50
2019-04-01T01:24:17.935Z,21.54
2019-04-01T01:25:17.926Z,21.63
2019-04-01T01:26:17.916Z,21.54
2019-04-01T01:27:17.904Z,21.54
2019-04-01T01:28:17.986Z,21.62
2019-04-01T01:29:17.884Z,21.53
2019-04-01T01:30:17.871Z,21.53
2019-04-01T01:31:17.860Z,21.56
2019-04-01T01:32:17.850Z,21.51
2019-04-01T01:33:17.839Z,21.60
2019-04-01T01:34:17.987Z,21.54
2019-04-01T01:35:17.822Z,21.53
2019-04-01T01:36:17.807Z,21.60
2019-04-01T01:37:17.797Z,21.53
2019-04-01T01:38:17.790Z,21.54
2019-04-01T01:39:17.775Z,21.60
2019-04-01T01:40:17.858Z,21.54
2019-04-01T01:41:17.755Z,21.56
2019-04-01T01:42:17.745Z,21.54
2019-04-01T01:43:17.734Z,21.56
2019-04-01T01:44:17.728Z,21.60
2019-04-01T01:45:17.718Z,21.53
2019-04-01T01:46:17.795Z,21.53
2019-04-01T01:47:17.689Z,21.47
2019-04-01T01:48:17.679Z,21.54
2019-04-01T01:49:17.668Z,21.51
2019-04-01T01:50:17.659Z,21.53
2019-04-01T01:51:17.655Z,21.54
2019-04-01T01:52:17.800Z,21.54
2019-04-01T01:53:17.623Z,21.53
2019-04-01T01:54:17.627Z,21.59
2019-04-01T01:55:17.602Z,21.53
2019-04-01T01:56:19.309Z,21.58
2019-04-01T01:57:17.606Z,21.63
2019-04-01T01:58:17.848Z,21.51
2019-04-01T01:59:17.558Z,21.56
2019-04-01T02:00:17.553Z,21.58
2019-04-01T02:01:17.547Z,21.62
2019-04-01T02:02:17.532Z,21.60
2019-04-01T02:03:17.523Z,21.58
2019-04-01T02:04:17.614Z,21.53
2019-04-01T02:05:17.506Z,21.56
2019-04-01T02:06:17.483Z,21.54
2019-04-01T02:07:17.489Z,21.50
2019-04-01T02:08:18.307Z,21.56
2019-04-01T02:09:17.451Z,21.56
2019-04-01T02:10:17.546Z,21.65
2019-04-01T02:11:17.437Z,21.53
2019-04-01T02:12:17.421Z,21.60
2019-04-01T02:13:17.414Z,21.56
2019-04-01T02:14:17.401Z,21.59
2019-04-01T02:15:17.391Z,21.58
2019-04-01T02:16:18.313Z,21.60
2019-04-01T02:17:18.310Z,21.60
2019-04-01T02:18:17.362Z,21.60
2019-04-01T02:19:17.345Z,21.48
2019-04-01T02:20:18.311Z,21.65
2019-04-01T02:21:17.345Z,21.58
2019-04-01T02:22:17.435Z,21.62
2019-04-01T02:23:17.808Z,21.50
2019-04-01T02:24:17.296Z,21.62
2019-04-01T02:25:17.283Z,21.54
2019-04-01T02:26:17.267Z,21.59
2019-04-01T02:27:17.907Z,21.63
2019-04-01T02:28:17.346Z,21.54
2019-04-01T02:29:17.237Z,21.54
2019-04-01T02:30:17.227Z,21.54
2019-04-01T02:31:17.218Z,21.54
2019-04-01T02:32:17.219Z,21.54
2019-04-01T02:33:17.199Z,21.53
2019-04-01T02:34:17.422Z,21.56
2019-04-01T02:35:17.168Z,21.47
2019-04-01T02:36:17.158Z,21.58
2019-04-01T02:37:17.146Z,21.50
2019-04-01T02:38:17.137Z,21.53
2019-04-01T02:39:17.129Z,21.56
2019-04-01T02:40:21.634Z,21.48
2019-04-01T02:41:17.120Z,21.53
2019-04-01T02:42:17.094Z,21.48
2019-04-01T02:43:17.083Z,21.47
2019-04-01T02:44:17.075Z,21.43
2019-04-01T02:45:17.061Z,21.44
2019-04-01T02:46:17.151Z,21.56
2019-04-01T02:47:17.041Z,21.40
2019-04-01T02:48:17.054Z,21.54
2019-04-01T02:49:17.019Z,21.45
2019-04-01T02:50:17.016Z,21.53
2019-04-01T02:51:17.008Z,21.45
2019-04-01T02:52:17.254Z,21.47
2019-04-01T02:53:16.975Z,21.48
2019-04-01T02:54:16.965Z,21.50
2019-04-01T02:55:16.954Z,21.45
2019-04-01T02:56:16.946Z,21.44
2019-04-01T02:57:16.934Z,21.45
2019-04-01T02:58:17.033Z,21.45
2019-04-01T02:59:16.910Z,21.50
2019-04-01T03:00:16.900Z,21.50
2019-04-01T03:01:16.889Z,21.41
2019-04-01T03:02:16.883Z,21.37
2019-04-01T03:03:16.869Z,21.47
2019-04-01T03:04:16.956Z,21.44
2019-04-01T03:05:16.846Z,21.41
2019-04-01T03:06:16.840Z,21.48
2019-04-01T03:07:16.828Z,21.50
2019-04-01T03:08:16.824Z,21.44
2019-04-01T03:09:16.806Z,21.45
2019-04-01T03:10:16.953Z,21.48
2019-04-01T03:11:16.787Z,21.43
2019-04-01T03:12:16.775Z,21.45
2019-04-01T03:13:16.778Z,21.43
2019-04-01T03:14:16.749Z,21.40
2019-04-01T03:15:16.742Z,21.44
2019-04-01T03:16:16.993Z,21.47
2019-04-01T03:17:16.716Z,21.45
2019-04-01T03:18:16.710Z,21.40
2019-04-01T03:19:16.695Z,21.48
2019-04-01T03:20:16.689Z,21.44
2019-04-01T03:21:16.679Z,21.50
2019-04-01T03:22:16.754Z,21.44
2019-04-01T03:23:16.653Z,21.47
2019-04-01T03:24:16.641Z,21.50
2019-04-01T03:25:16.630Z,21.43
2019-04-01T03:26:16.624Z,21.47
2019-04-01T03:27:17.482Z,21.38
2019-04-01T03:28:16.865Z,21.35
2019-04-01T03:29:16.598Z,21.47
2019-04-01T03:30:16.577Z,21.44
2019-04-01T03:31:16.568Z,21.50
2019-04-01T03:32:16.607Z,21.38
2019-04-01T03:33:16.569Z,21.44
2019-04-01T03:34:16.692Z,21.44
2019-04-01T03:35:16.523Z,21.45
2019-04-01T03:36:16.599Z,21.44
2019-04-01T03:37:16.501Z,21.48
2019-04-01T03:38:16.490Z,21.45
2019-04-01T03:39:16.479Z,21.41
2019-04-01T03:40:16.562Z,21.45
2019-04-01T03:41:16.459Z,21.38
2019-04-01T03:42:16.446Z,21.35
2019-04-01T03:43:16.439Z,21.45
2019-04-01T03:44:16.431Z,21.45
2019-04-01T03:45:16.422Z,21.45
2019-04-01T03:46:16.503Z,21.45
2019-04-01T03:47:16.399Z,21.44
2019-04-01T03:48:16.390Z,21.48
2019-04-01T03:49:16.378Z,21.51
2019-04-01T03:50:16.371Z,21.45
2019-04-01T03:51:16.351Z,21.48
2019-04-01T03:52:16.643Z,21.41
2019-04-01T03:53:16.343Z,21.47
2019-04-01T03:54:16.363Z,21.38
2019-04-01T03:55:16.312Z,21.50
2019-04-01T03:56:16.305Z,21.47
2019-04-01T03:57:16.288Z,21.47
2019-04-01T03:58:16.548Z,21.47
2019-04-01T03:59:16.269Z,21.50
2019-04-01T04:00:16.270Z,21.45
2019-04-01T04:01:16.253Z,21.43
2019-04-01T04:02:16.241Z,21.53
2019-04-01T04:03:16.224Z,21.44
2019-04-01T04:04:16.309Z,21.45
2019-04-01T04:05:16.200Z,21.44
2019-04-01T04:06:16.194Z,21.45
2019-04-01T04:07:16.179Z,21.41
2019-04-01T04:08:16.176Z,21.47
2019-04-01T04:09:16.159Z,21.43
2019-04-01T04:10:16.437Z,21.43
2019-04-01T04:11:16.137Z,21.50
2019-04-01T04:12:16.126Z,21.48
2019-04-01T04:13:16.115Z,21.59
2019-04-01T04:14:16.104Z,21.44
2019-04-01T04:15:16.097Z,21.38
2019-04-01T04:16:16.247Z,21.48
2019-04-01T04:17:16.070Z,21.44
2019-04-01T04:18:16.165Z,21.44
2019-04-01T04:19:16.068Z,21.56
2019-04-01T04:20:16.043Z,21.60
2019-04-01T04:21:16.035Z,21.60
2019-04-01T04:22:16.117Z,21.58
2019-04-01T04:23:16.007Z,21.45
2019-04-01T04:24:15.997Z,21.59
2019-04-01T04:25:15.988Z,21.51
2019-04-01T04:26:15.977Z,21.53
2019-04-01T04:27:15.970Z,21.44
2019-04-01T04:28:16.355Z,21.54
2019-04-01T04:29:15.943Z,21.53
2019-04-01T04:30:15.931Z,21.45
2019-04-01T04:31:15.920Z,21.58
2019-04-01T04:32:15.909Z,21.59
2019-04-01T04:33:16.024Z,21.51
2019-04-01T04:34:15.981Z,21.44
2019-04-01T04:35:15.877Z,21.50
2019-04-01T04:36:15.870Z,21.45
2019-04-01T04:37:15.856Z,21.47
2019-04-01T04:38:15.853Z,21.41
2019-04-01T04:39:15.839Z,21.45
2019-04-01T04:40:15.985Z,21.48
2019-04-01T04:41:15.812Z,21.48
2019-04-01T04:42:15.801Z,21.47
2019-04-01T04:43:15.791Z,21.50
2019-04-01T04:44:15.781Z,21.51
2019-04-01T04:45:15.769Z,21.45
2019-04-01T04:46:16.011Z,21.53
2019-04-01T04:47:15.749Z,21.47
2019-04-01T04:48:15.744Z,21.51
2019-04-01T04:49:15.724Z,21.47
2019-04-01T04:50:16.398Z,21.44
2019-04-01T04:51:15.793Z,21.45
2019-04-01T04:52:15.798Z,21.54
2019-04-01T04:53:15.682Z,21.62
2019-04-01T04:54:15.670Z,21.51
2019-04-01T04:55:15.659Z,21.53
2019-04-01T04:56:15.649Z,21.60
2019-04-01T04:57:15.641Z,21.58
2019-04-01T04:58:15.720Z,21.56
2019-04-01T04:59:15.615Z,21.62
2019-04-01T05:00:15.607Z,21.56
2019-04-01T05:01:15.596Z,21.63
2019-04-01T05:02:15.590Z,21.63
2019-04-01T05:03:15.574Z,21.60
2019-04-01T05:04:15.737Z,21.53
2019-04-01T05:05:15.640Z,21.54
2019-04-01T05:06:15.545Z,21.63
2019-04-01T05:07:15.533Z,21.69
2019-04-01T05:08:15.530Z,21.68
2019-04-01T05:09:15.508Z,21.65
2019-04-01T05:10:15.655Z,21.68
2019-04-01T05:11:15.485Z,21.72
2019-04-01T05:12:15.474Z,21.56
2019-04-01T05:13:15.462Z,21.60
2019-04-01T05:14:15.455Z,21.68
2019-04-01T05:15:15.441Z,21.72
2019-04-01T05:16:15.590Z,21.60
2019-04-01T05:17:15.420Z,21.72
2019-04-01T05:18:15.409Z,21.74
2019-04-01T05:19:15.401Z,21.59
2019-04-01T05:20:16.644Z,21.72
2019-04-01T05:21:15.377Z,21.65
2019-04-01T05:22:15.542Z,21.65
2019-04-01T05:23:15.353Z,21.74
2019-04-01T05:24:15.344Z,21.70
2019-04-01T05:25:15.334Z,21.69
2019-04-01T05:26:15.327Z,21.69
2019-04-01T05:27:15.318Z,21.75
2019-04-01T05:28:15.393Z,21.66
2019-04-01T05:29:15.289Z,21.66
2019-04-01T05:30:15.280Z,21.72
2019-04-01T05:31:15.287Z,21.77
2019-04-01T05:32:15.311Z,21.60
2019-04-01T05:33:15.254Z,21.69
2019-04-01T05:34:15.409Z,21.69
2019-04-01T05:35:15.227Z,21.65
2019-04-01T05:36:15.217Z,21.69
2019-04-01T05:37:15.205Z,21.72
2019-04-01T05:38:15.193Z,21.69
2019-04-01T05:39:15.180Z,21.74
2019-04-01T05:40:15.265Z,21.68
2019-04-01T05:41:15.165Z,21.72
2019-04-01T05:42:15.149Z,21.65
2019-04-01T05:43:15.141Z,21.69
2019-04-01T05:44:15.134Z,21.74
2019-04-01T05:45:15.115Z,21.68
2019-04-01T05:46:15.200Z,21.74
2019-04-01T05:47:15.094Z,21.68
2019-04-01T05:48:15.086Z,21.77
2019-04-01T05:49:15.072Z,21.72
2019-04-01T05:50:15.064Z,21.66
2019-04-01T05:51:15.051Z,21.68
2019-04-01T05:52:15.291Z,21.77
2019-04-01T05:53:15.031Z,21.69
2019-04-01T05:54:15.018Z,21.72
2019-04-01T05:55:15.007Z,21.72
2019-04-01T05:56:14.998Z,21.72
2019-04-01T05:57:14.988Z,21.70
2019-04-01T05:58:15.388Z,21.72
2019-04-01T05:59:14.962Z,21.69
2019-04-01T06:00:14.953Z,21.63
2019-04-01T06:01:14.942Z,21.65
2019-04-01T06:02:14.933Z,21.66
2019-04-01T06:03:14.920Z,21.70
2019-04-01T06:04:15.004Z,21.69
2019-04-01T06:05:14.898Z,21.72
2019-04-01T06:06:14.892Z,21.78
2019-04-01T06:07:14.876Z,21.69
2019-04-01T06:08:14.868Z,21.75
2019-04-01T06:09:14.858Z,21.72
2019-04-01T06:10:15.004Z,21.69
2019-04-01T06:11:14.833Z,21.70
2019-04-01T06:12:14.821Z,21.66
2019-04-01T06:13:14.811Z,21.77
2019-04-01T06:14:14.800Z,21.74
2019-04-01T06:15:14.790Z,21.74
2019-04-01T06:16:15.013Z,21.66
2019-04-01T06:17:14.767Z,21.74
2019-04-01T06:18:14.762Z,21.74
2019-04-01T06:19:14.750Z,21.70
2019-04-01T06:20:14.735Z,21.72
2019-04-01T06:21:14.726Z,21.66
2019-04-01T06:22:14.807Z,21.69
2019-04-01T06:23:14.701Z,21.74
2019-04-01T06:24:14.690Z,21.72
2019-04-01T06:25:14.685Z,21.69
2019-04-01T06:26:14.670Z,21.69
2019-04-01T06:27:15.125Z,21.65
2019-04-01T06:28:14.886Z,21.69
2019-04-01T06:29:14.637Z,21.74
2019-04-01T06:30:14.628Z,21.70
2019-04-01T06:31:14.615Z,21.83
2019-04-01T06:32:14.608Z,21.78
2019-04-01T06:33:14.601Z,21.74
2019-04-01T06:34:14.679Z,21.77
2019-04-01T06:35:14.571Z,21.84
2019-04-01T06:36:14.560Z,21.77
2019-04-01T06:37:14.550Z,21.78
2019-04-01T06:38:14.543Z,21.77
2019-04-01T06:39:14.529Z,21.75
2019-04-01T06:40:14.810Z,21.85
2019-04-01T06:41:14.505Z,21.74
2019-04-01T06:42:14.493Z,21.83
2019-04-01T06:43:14.484Z,21.68
2019-04-01T06:44:14.476Z,21.80
2019-04-01T06:45:14.522Z,21.77
2019-04-01T06:46:14.549Z,21.78
2019-04-01T06:47:14.445Z,21.77
2019-04-01T06:48:14.440Z,21.81
2019-04-01T06:49:14.419Z,21.77
2019-04-01T06:50:14.411Z,21.81
2019-04-01T06:51:14.398Z,21.80
2019-04-01T06:52:14.500Z,21.83
2019-04-01T06:53:14.376Z,21.80
2019-04-01T06:54:14.445Z,21.75
2019-04-01T06:55:14.354Z,21.81
2019-04-01T06:56:14.426Z,21.84
2019-04-01T06:57:14.342Z,21.80
2019-04-01T06:58:14.426Z,21.81
2019-04-01T06:59:14.315Z,21.89
2019-04-01T07:00:14.300Z,21.81
2019-04-01T07:01:14.289Z,21.83
2019-04-01T07:02:14.282Z,21.75
2019-04-01T07:03:14.271Z,21.84
2019-04-01T07:04:14.351Z,21.92
2019-04-01T07:05:14.247Z,21.83
2019-04-01T07:06:14.240Z,21.83
2019-04-01T07:07:19.147Z,21.81
2019-04-01T07:08:15.214Z,21.80
2019-04-01T07:09:14.218Z,21.80
2019-04-01T07:10:14.353Z,21.77
2019-04-01T07:11:14.180Z,21.81
2019-04-01T07:12:14.175Z,21.77
2019-04-01T07:13:14.160Z,21.75
2019-04-01T07:14:14.150Z,21.74
2019-04-01T07:15:14.147Z,21.74
2019-04-01T07:16:16.055Z,21.78
2019-04-01T07:17:14.117Z,21.66
2019-04-01T07:18:14.108Z,21.66
2019-04-01T07:19:14.095Z,21.75
2019-04-01T07:20:14.089Z,21.68
2019-04-01T07:21:14.081Z,21.70
2019-04-01T07:22:14.161Z,21.68
2019-04-01T07:23:14.051Z,21.62
2019-04-01T07:24:14.041Z,21.62
2019-04-01T07:25:14.030Z,21.59
2019-04-01T07:26:14.022Z,21.62
2019-04-01T07:27:14.022Z,21.63
2019-04-01T07:28:14.165Z,21.58
2019-04-01T07:29:13.986Z,21.63
2019-04-01T07:30:13.976Z,21.59
2019-04-01T07:31:13.966Z,21.54
2019-04-01T07:32:14.653Z,21.60
2019-04-01T07:33:13.947Z,21.54
2019-04-01T07:34:14.095Z,21.50
2019-04-01T07:35:13.923Z,21.51
2019-04-01T07:36:13.915Z,21.53
2019-04-01T07:37:13.901Z,21.58
2019-04-01T07:38:13.891Z,21.48
2019-04-01T07:39:13.880Z,21.53
2019-04-01T07:40:14.228Z,21.51
2019-04-01T07:41:13.857Z,21.50
2019-04-01T07:42:13.851Z,21.43
2019-04-01T07:43:15.110Z,21.44
2019-04-01T07:44:13.825Z,21.44
2019-04-01T07:45:13.821Z,21.44
2019-04-01T07:46:13.969Z,21.44
2019-04-01T07:47:13.791Z,21.47
2019-04-01T07:48:13.792Z,21.45
2019-04-01T07:49:13.779Z,21.38
2019-04-01T07:50:13.763Z,21.50
2019-04-01T07:51:13.772Z,21.43
2019-04-01T07:52:13.903Z,21.37
2019-04-01T07:53:13.727Z,21.35
2019-04-01T07:54:13.720Z,21.33
2019-04-01T07:55:13.706Z,21.43
2019-04-01T07:56:13.695Z,21.35
2019-04-01T07:57:13.684Z,21.32
2019-04-01T07:58:13.767Z,21.37
2019-04-01T07:59:13.661Z,21.38
2019-04-01T08:00:13.650Z,21.38
2019-04-01T08:01:13.639Z,21.38
2019-04-01T08:02:13.642Z,21.35
2019-04-01T08:03:13.619Z,21.38
2019-04-01T08:04:13.704Z,21.38
2019-04-01T08:05:13.596Z,21.35
2019-04-01T08:06:13.587Z,21.30
2019-04-01T08:07:13.734Z,21.40
2019-04-01T08:08:13.571Z,21.32
2019-04-01T08:09:13.559Z,21.37
2019-04-01T08:10:13.814Z,21.41
2019-04-01T08:11:13.545Z,21.40
2019-04-01T08:12:13.523Z,21.35
2019-04-01T08:13:13.518Z,21.41
2019-04-01T08:14:13.504Z,21.44
2019-04-01T08:15:13.492Z,21.44
2019-04-01T08:16:13.722Z,21.45
2019-04-01T08:17:13.468Z,21.44
2019-04-01T08:18:13.464Z,21.45
2019-04-01T08:19:13.447Z,21.38
2019-04-01T08:20:13.438Z,21.38
2019-04-01T08:21:13.427Z,21.43
2019-04-01T08:22:13.507Z,21.45
2019-04-01T08:23:13.412Z,21.44
2019-04-01T08:24:13.392Z,21.40
2019-04-01T08:25:13.395Z,21.37
2019-04-01T08:26:13.371Z,21.43
2019-04-01T08:27:13.370Z,21.43
2019-04-01T08:28:13.528Z,21.44
2019-04-01T08:29:13.338Z,21.40
2019-04-01T08:30:13.336Z,21.37
2019-04-01T08:31:13.575Z,21.40
2019-04-01T08:32:14.034Z,21.33
2019-04-01T08:33:13.320Z,21.35
2019-04-01T08:34:13.464Z,21.35
2019-04-01T08:35:13.281Z,21.38
2019-04-01T08:36:13.270Z,21.40
2019-04-01T08:37:13.255Z,21.43
2019-04-01T08:38:13.263Z,21.37
2019-04-01T08:39:13.250Z,21.37
2019-04-01T08:40:13.348Z,21.32
2019-04-01T08:41:13.216Z,21.32
2019-04-01T08:42:13.250Z,21.41
2019-04-01T08:43:13.189Z,21.38
2019-04-01T08:44:13.205Z,21.35
2019-04-01T08:45:14.277Z,21.35
2019-04-01T08:46:13.159Z,21.25
2019-04-01T08:47:13.155Z,21.23
2019-04-01T08:48:13.156Z,21.25
2019-04-01T08:49:13.137Z,21.26
2019-04-01T08:50:13.122Z,21.26
2019-04-01T08:51:13.373Z,21.28
2019-04-01T08:52:13.101Z,21.32
2019-04-01T08:53:13.090Z,21.26
2019-04-01T08:54:13.085Z,21.23
2019-04-01T08:55:13.067Z,21.30
2019-04-01T08:56:13.057Z,21.28
2019-04-01T08:57:13.219Z,21.25
2019-04-01T08:58:13.035Z,21.38
2019-04-01T08:59:13.032Z,21.28
2019-04-01T09:00:13.027Z,21.29
2019-04-01T09:01:13.002Z,21.28
2019-04-01T09:02:18.008Z,21.33
2019-04-01T09:03:14.065Z,21.29
2019-04-01T09:04:12.967Z,21.32
2019-04-01T09:05:12.964Z,21.35
2019-04-01T09:06:13.073Z,21.30
2019-04-01T09:07:12.931Z,21.33
2019-04-01T09:08:12.932Z,21.40
2019-04-01T09:09:13.013Z,21.41
2019-04-01T09:10:12.896Z,21.38
2019-04-01T09:11:12.887Z,21.44
2019-04-01T09:12:12.872Z,21.50
2019-04-01T09:13:12.861Z,21.53
2019-04-01T09:14:12.851Z,21.43
2019-04-01T09:15:13.114Z,21.35
2019-04-01T09:16:12.828Z,21.33
2019-04-01T09:17:12.816Z,21.25
2019-04-01T09:18:12.805Z,21.20
2019-04-01T09:19:12.797Z,21.13
2019-04-01T09:20:12.788Z,21.05
2019-04-01T09:21:12.864Z,20.98
2019-04-01T09:22:12.762Z,21.05
2019-04-01T09:23:12.750Z,20.96
2019-04-01T09:24:12.740Z,21.03
2019-04-01T09:25:12.729Z,20.93
2019-04-01T09:26:12.721Z,20.92
2019-04-01T09:27:12.804Z,20.92
2019-04-01T09:28:12.699Z,20.78
2019-04-01T09:29:12.686Z,20.80
2019-04-01T09:30:12.681Z,20.73
2019-04-01T09:31:12.663Z,20.66
2019-04-01T09:32:12.671Z,20.55
2019-04-01T09:33:12.939Z,20.58
2019-04-01T09:34:12.638Z,20.53
2019-04-01T09:35:12.623Z,20.63
2019-04-01T09:36:12.611Z,20.64
2019-04-01T09:37:12.599Z,20.71
2019-04-01T09:38:12.601Z,20.64
2019-04-01T09:39:12.672Z,20.78
2019-04-01T09:40:12.567Z,20.85
2019-04-01T09:41:13.407Z,20.88
2019-04-01T09:42:12.620Z,20.89
2019-04-01T09:43:14.270Z,20.98
2019-04-01T09:44:12.528Z,20.96
2019-04-01T09:45:12.671Z,21.03
2019-04-01T09:46:12.504Z,20.98
2019-04-01T09:47:12.493Z,21.00
2019-04-01T09:48:12.482Z,21.01
2019-04-01T09:49:12.475Z,21.08
2019-04-01T09:50:12.493Z,21.15
2019-04-01T09:51:12.612Z,21.15
2019-04-01T09:52:12.440Z,21.19
2019-04-01T09:53:12.429Z,21.15
2019-04-01T09:54:12.420Z,21.23
2019-04-01T09:55:12.408Z,21.25
2019-04-01T09:56:12.399Z,21.30
2019-04-01T09:57:17.660Z,21.30
2019-04-01T09:58:13.373Z,21.35
2019-04-01T09:59:12.366Z,21.28
2019-04-01T10:00:12.355Z,21.25
2019-04-01T10:01:12.350Z,21.32
2019-04-01T10:02:12.340Z,21.33
2019-04-01T10:03:12.443Z,21.32
2019-04-01T10:04:12.319Z,21.23
2019-04-01T10:05:12.301Z,21.23
2019-04-01T10:06:12.296Z,21.30
2019-04-01T10:07:12.279Z,21.25
2019-04-01T10:08:12.269Z,21.26
2019-04-01T10:09:12.697Z,21.35
2019-04-01T10:10:12.247Z,21.30
2019-04-01T10:11:12.801Z,21.23
2019-04-01T10:12:12.226Z,21.25
2019-04-01T10:13:12.214Z,21.33
2019-04-01T10:14:12.204Z,21.25
2019-04-01T10:15:12.466Z,21.28
2019-04-01T10:16:12.181Z,21.25
2019-04-01T10:17:12.171Z,21.30
2019-04-01T10:18:12.159Z,21.25
2019-04-01T10:19:12.184Z,21.29
2019-04-01T10:20:12.144Z,21.33
2019-04-01T10:21:12.221Z,21.25
2019-04-01T10:22:12.116Z,21.40
2019-04-01T10:23:12.106Z,21.41
2019-04-01T10:24:12.100Z,21.40
2019-04-01T10:25:12.095Z,21.38
2019-04-01T10:26:12.076Z,21.45
2019-04-01T10:27:12.158Z,21.44
2019-04-01T10:28:12.052Z,21.45
2019-04-01T10:29:12.040Z,21.48
2019-04-01T10:30:12.031Z,21.54
2019-04-01T10:31:12.024Z,21.56
2019-04-01T10:32:12.010Z,21.56
2019-04-01T10:33:12.270Z,21.62
2019-04-01T10:34:11.988Z,21.59
2019-04-01T10:35:11.977Z,21.59
2019-04-01T10:36:11.968Z,21.62
2019-04-01T10:37:11.957Z,21.69
2019-04-01T10:38:11.944Z,21.69
2019-04-01T10:39:12.028Z,21.70
2019-04-01T10:40:11.926Z,21.69
2019-04-01T10:41:11.918Z,21.78
2019-04-01T10:42:11.901Z,21.78
2019-04-01T10:43:11.956Z,21.91
2019-04-01T10:44:11.879Z,21.83
2019-04-01T10:45:11.967Z,21.84
2019-04-01T10:46:12.420Z,21.77
2019-04-01T10:47:12.026Z,21.92
2019-04-01T10:48:11.844Z,21.96
2019-04-01T10:49:11.901Z,21.97
2019-04-01T10:50:11.905Z,21.97
2019-04-01T10:51:12.084Z,21.99
2019-04-01T10:52:11.874Z,22.03
2019-04-01T10:53:11.820Z,22.07
2019-04-01T10:54:11.777Z,22.06
2019-04-01T10:55:11.837Z,22.01
2019-04-01T10:56:11.761Z,22.07
2019-04-01T10:57:11.929Z,22.01
2019-04-01T10:58:11.760Z,22.06
2019-04-01T10:59:11.822Z,22.08
2019-04-01T11:00:11.752Z,22.08
2019-04-01T11:01:11.797Z,22.08
2019-04-01T11:02:11.719Z,22.12
2019-04-01T11:03:11.835Z,22.14
2019-04-01T11:04:11.697Z,22.12
2019-04-01T11:05:11.654Z,22.12
2019-04-01T11:06:11.672Z,22.16
2019-04-01T11:07:11.734Z,22.08
2019-04-01T11:08:11.668Z,22.10
2019-04-01T11:09:12.086Z,22.08
2019-04-01T11:10:12.008Z,22.25
2019-04-01T11:11:11.591Z,22.23
2019-04-01T11:12:11.580Z,22.25
2019-04-01T11:13:11.566Z,22.25
2019-04-01T11:14:11.556Z,22.19
2019-04-01T11:15:15.424Z,22.18
2019-04-01T11:16:11.537Z,22.21
2019-04-01T11:17:11.533Z,22.22
2019-04-01T11:18:12.218Z,22.15
2019-04-01T11:19:11.502Z,22.18
2019-04-01T11:20:11.513Z,22.21
2019-04-01T11:21:11.585Z,22.26
2019-04-01T11:22:11.552Z,22.36
2019-04-01T11:23:11.463Z,22.33
2019-04-01T11:24:11.451Z,22.38
2019-04-01T11:25:11.445Z,22.40
2019-04-01T11:26:11.425Z,22.40
2019-04-01T11:27:11.533Z,22.43
2019-04-01T11:28:11.408Z,22.43
2019-04-01T11:29:11.393Z,22.38
2019-04-01T11:30:13.742Z,22.40
2019-04-01T11:31:11.400Z,22.37
2019-04-01T11:32:13.383Z,22.40
2019-04-01T11:33:11.552Z,22.38
2019-04-01T11:34:11.390Z,22.38
2019-04-01T11:35:11.382Z,22.43
2019-04-01T11:36:11.372Z,22.40
2019-04-01T11:37:11.339Z,22.44
2019-04-01T11:38:11.332Z,22.51
2019-04-01T11:39:11.408Z,22.52
2019-04-01T11:40:12.242Z,22.55
2019-04-01T11:41:11.424Z,22.43
2019-04-01T11:42:11.309Z,22.49
2019-04-01T11:43:11.280Z,22.52
2019-04-01T11:44:11.232Z,22.51
2019-04-01T11:45:11.591Z,22.62
2019-04-01T11:46:12.678Z,22.67
2019-04-01T11:47:11.217Z,22.67
2019-04-01T11:48:11.227Z,22.71
2019-04-01T11:49:11.222Z,22.65
2019-04-01T11:50:11.214Z,22.67
2019-04-01T11:51:11.468Z,22.65
2019-04-01T11:52:11.203Z,22.74
2019-04-01T11:53:11.135Z,22.80
2019-04-01T11:54:11.123Z,22.71
2019-04-01T11:55:11.115Z,22.73
2019-04-01T11:56:11.202Z,22.78
2019-04-01T11:57:11.357Z,22.78
2019-04-01T11:58:11.080Z,22.73
2019-04-01T11:59:11.072Z,22.71
2019-04-01T12:00:12.728Z,22.74
2019-04-01T12:01:11.047Z,22.77
2019-04-01T12:02:11.037Z,22.74
2019-04-01T12:03:11.279Z,22.73
2019-04-01T12:04:11.909Z,22.76
2019-04-01T12:05:11.011Z,22.88
2019-04-01T12:06:10.996Z,22.73
2019-04-01T12:07:10.984Z,22.83
2019-04-01T12:08:10.971Z,22.76
2019-04-01T12:09:11.122Z,22.80
2019-04-01T12:10:10.953Z,22.76
2019-04-01T12:11:10.942Z,22.74
2019-04-01T12:12:22.674Z,22.73
2019-04-01T12:13:12.012Z,22.70
2019-04-01T12:14:10.907Z,22.65
2019-04-01T12:15:12.458Z,22.76
2019-04-01T12:16:10.887Z,22.65
2019-04-01T12:17:10.875Z,22.71
2019-04-01T12:18:10.872Z,22.68
2019-04-01T12:19:10.863Z,22.63
2019-04-01T12:20:10.869Z,22.58
2019-04-01T12:21:11.015Z,22.53
2019-04-01T12:22:11.340Z,22.53
2019-04-01T12:23:10.817Z,22.46
2019-04-01T12:24:10.815Z,22.53
2019-04-01T12:25:10.790Z,22.55
2019-04-01T12:26:15.450Z,22.53
2019-04-01T12:27:11.861Z,22.49
2019-04-01T12:28:10.763Z,22.55
2019-04-01T12:29:12.299Z,22.49
2019-04-01T12:30:10.735Z,22.55
2019-04-01T12:31:12.808Z,22.51
2019-04-01T12:32:10.712Z,22.51
2019-04-01T12:33:10.798Z,22.55
2019-04-01T12:34:10.692Z,22.46
2019-04-01T12:35:10.688Z,22.46
2019-04-01T12:36:11.795Z,22.44
2019-04-01T12:37:10.682Z,22.41
2019-04-01T12:38:10.646Z,22.40
2019-04-01T12:39:10.904Z,22.37
2019-04-01T12:40:10.631Z,22.44
2019-04-01T12:41:10.615Z,22.34
2019-04-01T12:42:10.607Z,22.40
2019-04-01T12:43:10.594Z,22.38
2019-04-01T12:44:11.267Z,22.44
2019-04-01T12:45:10.994Z,22.40
2019-04-01T12:46:10.560Z,22.36
2019-04-01T12:47:10.549Z,22.36
2019-04-01T12:48:10.538Z,22.37
2019-04-01T12:49:10.527Z,22.40
2019-04-01T12:50:10.517Z,22.30
2019-04-01T12:51:10.602Z,22.31
2019-04-01T12:52:10.496Z,22.30